sensor_id;sensor_type;location;lat;lon;timestamp;temperature;humidity
32322;DHT22;61553;48.994;8.940;2023-07-29T00:01:51;16.30;99.90
32322;DHT22;61553;48.994;8.940;2023-07-29T00:04:17;16.30;99.90
32322;DHT22;61553;48.994;8.940;2023-07-29T00:06:43;16.40;99.90
32322;DHT22;61553;48.994;8.940;2023-07-29T00:09:08;16.50;99.90
32322;DHT22;61553;48.994;8.940;2023-07-29T00:11:34;16.40;99.90
32322;DHT22;61553;48.994;8.940;2023-07-29T00:14:01;16.40;99.90
32322;DHT22;61553;48.994;8.940;2023-07-29T00:16:27;16.40;99.90
32322;DHT22;61553;48.994;8.940;2023-07-29T00:18:52;16.50;99.90
32322;DHT22;61553;48.994;8.940;2023-07-29T00:21:18;16.50;99.90
32322;DHT22;61553;48.994;8.940;2023-07-29T00:23:43;16.50;99.90
32322;DHT22;61553;48.994;8.940;2023-07-29T00:26:09;16.50;99.90
32322;DHT22;61553;48.994;8.940;2023-07-29T00:28:34;16.50;99.90
32322;DHT22;61553;48.994;8.940;2023-07-29T00:31:01;16.50;99.90
32322;DHT22;61553;48.994;8.940;2023-07-29T00:33:27;16.50;99.90
32322;DHT22;61553;48.994;8.940;2023-07-29T00:35:52;16.50;99.90
32322;DHT22;61553;48.994;8.940;2023-07-29T00:38:18;16.50;99.90
32322;DHT22;61553;48.994;8.940;2023-07-29T00:40:43;16.60;99.90
32322;DHT22;61553;48.994;8.940;2023-07-29T00:43:09;16.60;99.90
32322;DHT22;61553;48.994;8.940;2023-07-29T00:45:35;16.60;99.90
32322;DHT22;61553;48.994;8.940;2023-07-29T00:48:02;16.60;99.90
32322;DHT22;61553;48.994;8.940;2023-07-29T00:50:29;16.60;99.90
32322;DHT22;61553;48.994;8.940;2023-07-29T00:52:56;16.60;99.90
32322;DHT22;61553;48.994;8.940;2023-07-29T00:55:22;16.70;99.90
32322;DHT22;61553;48.994;8.940;2023-07-29T00:57:48;16.60;99.90
32322;DHT22;61553;48.994;8.940;2023-07-29T01:00:17;16.60;99.90
32322;DHT22;61553;48.994;8.940;2023-07-29T01:02:43;16.60;99.90
32322;DHT22;61553;48.994;8.940;2023-07-29T01:05:12;16.60;99.90
32322;DHT22;61553;48.994;8.940;2023-07-29T01:08:05;16.50;99.90
32322;DHT22;61553;48.994;8.940;2023-07-29T01:10:47;16.50;99.90
32322;DHT22;61553;48.994;8.940;2023-07-29T01:13:34;16.60;99.90
32322;DHT22;61553;48.994;8.940;2023-07-29T01:16:09;16.50;99.90
32322;DHT22;61553;48.994;8.940;2023-07-29T01:18:39;16.60;99.90
32322;DHT22;61553;48.994;8.940;2023-07-29T01:21:08;16.60;99.90
32322;DHT22;61553;48.994;8.940;2023-07-29T01:23:34;16.60;99.90
32322;DHT22;61553;48.994;8.940;2023-07-29T01:26:01;16.70;99.90
32322;DHT22;61553;48.994;8.940;2023-07-29T01:28:28;16.70;99.90
32322;DHT22;61553;48.994;8.940;2023-07-29T01:31:27;16.60;99.90
32322;DHT22;61553;48.994;8.940;2023-07-29T01:34:17;16.60;99.90
32322;DHT22;61553;48.994;8.940;2023-07-29T01:36:46;16.70;99.90
32322;DHT22;61553;48.994;8.940;2023-07-29T01:39:14;16.70;99.90
32322;DHT22;61553;48.994;8.940;2023-07-29T01:41:40;16.60;99.90
32322;DHT22;61553;48.994;8.940;2023-07-29T01:44:06;16.50;99.90
32322;DHT22;61553;48.994;8.940;2023-07-29T01:46:34;16.50;99.90
32322;DHT22;61553;48.994;8.940;2023-07-29T01:48:59;16.60;99.90
32322;DHT22;61553;48.994;8.940;2023-07-29T01:51:25;16.60;99.90
32322;DHT22;61553;48.994;8.940;2023-07-29T01:53:51;16.50;99.90
32322;DHT22;61553;48.994;8.940;2023-07-29T01:56:16;16.50;99.90
32322;DHT22;61553;48.994;8.940;2023-07-29T01:58:42;16.50;99.90
32322;DHT22;61553;48.994;8.940;2023-07-29T02:01:07;16.40;99.90
32322;DHT22;61553;48.994;8.940;2023-07-29T02:03:33;16.30;99.90
32322;DHT22;61553;48.994;8.940;2023-07-29T02:05:59;16.30;99.90
32322;DHT22;61553;48.994;8.940;2023-07-29T02:08:24;16.20;99.90
32322;DHT22;61553;48.994;8.940;2023-07-29T02:10:50;16.10;99.90
32322;DHT22;61553;48.994;8.940;2023-07-29T02:13:16;16.10;99.90
32322;DHT22;61553;48.994;8.940;2023-07-29T02:15:41;16.10;99.90
32322;DHT22;61553;48.994;8.940;2023-07-29T02:18:07;16.10;99.90
32322;DHT22;61553;48.994;8.940;2023-07-29T02:20:33;16.00;99.90
32322;DHT22;61553;48.994;8.940;2023-07-29T02:22:58;16.00;99.90
32322;DHT22;61553;48.994;8.940;2023-07-29T02:25:24;16.10;99.90
32322;DHT22;61553;48.994;8.940;2023-07-29T02:27:49;16.20;99.90
32322;DHT22;61553;48.994;8.940;2023-07-29T02:30:15;16.30;99.90
32322;DHT22;61553;48.994;8.940;2023-07-29T02:32:41;16.40;99.90
32322;DHT22;61553;48.994;8.940;2023-07-29T02:35:07;16.40;99.90
32322;DHT22;61553;48.994;8.940;2023-07-29T02:37:32;16.30;99.90
32322;DHT22;61553;48.994;8.940;2023-07-29T02:39:58;16.40;99.90
32322;DHT22;61553;48.994;8.940;2023-07-29T02:42:24;16.40;99.90
32322;DHT22;61553;48.994;8.940;2023-07-29T02:44:49;16.40;99.90
32322;DHT22;61553;48.994;8.940;2023-07-29T02:47:15;16.30;99.90
32322;DHT22;61553;48.994;8.940;2023-07-29T02:49:40;16.20;99.90
32322;DHT22;61553;48.994;8.940;2023-07-29T02:52:06;16.30;99.90
32322;DHT22;61553;48.994;8.940;2023-07-29T02:54:32;16.20;99.90
32322;DHT22;61553;48.994;8.940;2023-07-29T02:56:58;16.20;99.90
32322;DHT22;61553;48.994;8.940;2023-07-29T02:59:23;16.20;99.90
32322;DHT22;61553;48.994;8.940;2023-07-29T03:01:49;16.20;99.90
32322;DHT22;61553;48.994;8.940;2023-07-29T03:04:14;16.10;99.90
32322;DHT22;61553;48.994;8.940;2023-07-29T03:06:40;16.20;99.90
32322;DHT22;61553;48.994;8.940;2023-07-29T03:09:06;16.30;99.90
32322;DHT22;61553;48.994;8.940;2023-07-29T03:11:31;16.20;99.90
32322;DHT22;61553;48.994;8.940;2023-07-29T03:13:57;16.20;99.90
32322;DHT22;61553;48.994;8.940;2023-07-29T03:16:23;16.30;99.90
32322;DHT22;61553;48.994;8.940;2023-07-29T03:18:49;16.30;99.90
32322;DHT22;61553;48.994;8.940;2023-07-29T03:21:15;16.30;99.90
32322;DHT22;61553;48.994;8.940;2023-07-29T03:23:40;16.40;99.90
32322;DHT22;61553;48.994;8.940;2023-07-29T03:26:06;16.30;99.90
32322;DHT22;61553;48.994;8.940;2023-07-29T03:28:37;16.30;99.90
32322;DHT22;61553;48.994;8.940;2023-07-29T03:31:03;16.30;99.90
32322;DHT22;61553;48.994;8.940;2023-07-29T03:33:29;16.30;99.90
32322;DHT22;61553;48.994;8.940;2023-07-29T03:35:55;16.40;99.90
32322;DHT22;61553;48.994;8.940;2023-07-29T03:38:21;16.40;99.90
32322;DHT22;61553;48.994;8.940;2023-07-29T03:40:46;16.40;99.90
32322;DHT22;61553;48.994;8.940;2023-07-29T03:43:12;16.30;99.90
32322;DHT22;61553;48.994;8.940;2023-07-29T03:45:39;16.40;99.90
32322;DHT22;61553;48.994;8.940;2023-07-29T03:48:05;16.40;99.90
32322;DHT22;61553;48.994;8.940;2023-07-29T03:50:34;16.40;99.90
32322;DHT22;61553;48.994;8.940;2023-07-29T03:53:03;16.50;99.90
32322;DHT22;61553;48.994;8.940;2023-07-29T03:55:29;16.50;99.90
32322;DHT22;61553;48.994;8.940;2023-07-29T03:57:56;16.40;99.90
32322;DHT22;61553;48.994;8.940;2023-07-29T04:00:22;16.40;99.90
32322;DHT22;61553;48.994;8.940;2023-07-29T04:02:48;16.50;99.90
32322;DHT22;61553;48.994;8.940;2023-07-29T04:05:14;16.50;99.90
32322;DHT22;61553;48.994;8.940;2023-07-29T04:07:40;16.40;99.90
32322;DHT22;61553;48.994;8.940;2023-07-29T04:10:06;16.40;99.90
32322;DHT22;61553;48.994;8.940;2023-07-29T04:12:32;16.50;99.90
32322;DHT22;61553;48.994;8.940;2023-07-29T04:14:58;16.50;99.90
32322;DHT22;61553;48.994;8.940;2023-07-29T04:17:23;16.50;99.90
32322;DHT22;61553;48.994;8.940;2023-07-29T04:19:49;16.50;99.90
32322;DHT22;61553;48.994;8.940;2023-07-29T04:22:15;16.60;99.90
32322;DHT22;61553;48.994;8.940;2023-07-29T04:24:41;16.60;99.90
32322;DHT22;61553;48.994;8.940;2023-07-29T04:27:07;16.60;99.90
32322;DHT22;61553;48.994;8.940;2023-07-29T04:29:33;16.60;99.90
32322;DHT22;61553;48.994;8.940;2023-07-29T04:31:58;16.70;99.90
32322;DHT22;61553;48.994;8.940;2023-07-29T04:34:24;16.70;99.90
32322;DHT22;61553;48.994;8.940;2023-07-29T04:36:49;16.70;99.90
32322;DHT22;61553;48.994;8.940;2023-07-29T04:39:15;16.80;99.90
32322;DHT22;61553;48.994;8.940;2023-07-29T04:41:41;16.70;99.90
32322;DHT22;61553;48.994;8.940;2023-07-29T04:44:06;16.80;99.90
32322;DHT22;61553;48.994;8.940;2023-07-29T04:46:33;16.80;99.90
32322;DHT22;61553;48.994;8.940;2023-07-29T04:48:59;16.80;99.90
32322;DHT22;61553;48.994;8.940;2023-07-29T04:51:24;16.80;99.90
32322;DHT22;61553;48.994;8.940;2023-07-29T04:53:50;16.90;99.90
32322;DHT22;61553;48.994;8.940;2023-07-29T04:56:16;16.90;99.90
32322;DHT22;61553;48.994;8.940;2023-07-29T04:58:41;17.00;99.90
32322;DHT22;61553;48.994;8.940;2023-07-29T05:01:07;17.10;99.90
32322;DHT22;61553;48.994;8.940;2023-07-29T05:03:33;17.20;99.90
32322;DHT22;61553;48.994;8.940;2023-07-29T05:05:59;17.30;99.90
32322;DHT22;61553;48.994;8.940;2023-07-29T05:08:26;17.40;99.90
32322;DHT22;61553;48.994;8.940;2023-07-29T05:10:52;17.50;99.90
32322;DHT22;61553;48.994;8.940;2023-07-29T05:13:18;17.60;99.90
32322;DHT22;61553;48.994;8.940;2023-07-29T05:15:44;17.70;99.90
32322;DHT22;61553;48.994;8.940;2023-07-29T05:18:11;17.90;99.90
32322;DHT22;61553;48.994;8.940;2023-07-29T05:20:36;17.90;99.90
32322;DHT22;61553;48.994;8.940;2023-07-29T05:23:02;18.00;99.90
32322;DHT22;61553;48.994;8.940;2023-07-29T05:25:29;18.10;99.90
32322;DHT22;61553;48.994;8.940;2023-07-29T05:27:54;18.20;99.90
32322;DHT22;61553;48.994;8.940;2023-07-29T05:30:20;18.30;99.90
32322;DHT22;61553;48.994;8.940;2023-07-29T05:32:46;18.50;99.90
32322;DHT22;61553;48.994;8.940;2023-07-29T05:35:11;18.70;99.90
32322;DHT22;61553;48.994;8.940;2023-07-29T05:37:38;18.70;99.90
32322;DHT22;61553;48.994;8.940;2023-07-29T05:40:05;18.80;99.90
32322;DHT22;61553;48.994;8.940;2023-07-29T05:42:32;18.90;99.90
32322;DHT22;61553;48.994;8.940;2023-07-29T05:44:58;18.90;99.90
32322;DHT22;61553;48.994;8.940;2023-07-29T05:47:24;19.00;99.90
32322;DHT22;61553;48.994;8.940;2023-07-29T05:49:49;19.00;99.90
32322;DHT22;61553;48.994;8.940;2023-07-29T05:52:15;19.00;99.90
32322;DHT22;61553;48.994;8.940;2023-07-29T05:54:41;19.00;99.90
32322;DHT22;61553;48.994;8.940;2023-07-29T05:57:09;19.30;99.90
32322;DHT22;61553;48.994;8.940;2023-07-29T05:59:35;19.70;99.90
32322;DHT22;61553;48.994;8.940;2023-07-29T06:02:00;20.20;99.90
32322;DHT22;61553;48.994;8.940;2023-07-29T06:04:26;20.60;99.90
32322;DHT22;61553;48.994;8.940;2023-07-29T06:06:52;20.70;99.90
32322;DHT22;61553;48.994;8.940;2023-07-29T06:09:18;20.70;99.90
32322;DHT22;61553;48.994;8.940;2023-07-29T06:11:43;20.80;99.90
32322;DHT22;61553;48.994;8.940;2023-07-29T06:14:09;20.70;99.90
32322;DHT22;61553;48.994;8.940;2023-07-29T06:16:35;20.70;99.90
32322;DHT22;61553;48.994;8.940;2023-07-29T06:19:00;20.60;99.90
32322;DHT22;61553;48.994;8.940;2023-07-29T06:21:26;20.60;99.90
32322;DHT22;61553;48.994;8.940;2023-07-29T06:23:52;20.70;99.90
32322;DHT22;61553;48.994;8.940;2023-07-29T06:26:17;20.70;99.90
32322;DHT22;61553;48.994;8.940;2023-07-29T06:28:43;20.90;99.90
32322;DHT22;61553;48.994;8.940;2023-07-29T06:31:09;20.80;99.90
32322;DHT22;61553;48.994;8.940;2023-07-29T06:33:34;20.80;99.90
32322;DHT22;61553;48.994;8.940;2023-07-29T06:36:00;20.80;99.90
32322;DHT22;61553;48.994;8.940;2023-07-29T06:38:26;20.70;99.90
32322;DHT22;61553;48.994;8.940;2023-07-29T06:40:51;20.60;99.90
32322;DHT22;61553;48.994;8.940;2023-07-29T06:43:17;20.50;99.90
32322;DHT22;61553;48.994;8.940;2023-07-29T06:45:43;20.30;99.90
32322;DHT22;61553;48.994;8.940;2023-07-29T06:48:09;20.20;99.90
32322;DHT22;61553;48.994;8.940;2023-07-29T06:50:34;20.10;99.90
32322;DHT22;61553;48.994;8.940;2023-07-29T06:53:00;20.10;99.90
32322;DHT22;61553;48.994;8.940;2023-07-29T06:55:26;20.00;99.90
32322;DHT22;61553;48.994;8.940;2023-07-29T06:57:51;20.00;99.90
32322;DHT22;61553;48.994;8.940;2023-07-29T07:00:17;20.10;99.90
32322;DHT22;61553;48.994;8.940;2023-07-29T07:02:43;20.00;99.90
32322;DHT22;61553;48.994;8.940;2023-07-29T07:05:09;19.80;99.90
32322;DHT22;61553;48.994;8.940;2023-07-29T07:07:34;19.70;99.90
32322;DHT22;61553;48.994;8.940;2023-07-29T07:10:00;19.70;99.90
32322;DHT22;61553;48.994;8.940;2023-07-29T07:12:26;19.70;99.90
32322;DHT22;61553;48.994;8.940;2023-07-29T07:14:51;19.60;99.90
32322;DHT22;61553;48.994;8.940;2023-07-29T07:17:17;19.50;99.90
32322;DHT22;61553;48.994;8.940;2023-07-29T07:19:43;19.50;99.90
32322;DHT22;61553;48.994;8.940;2023-07-29T07:22:09;19.60;99.90
32322;DHT22;61553;48.994;8.940;2023-07-29T07:24:35;19.70;99.90
32322;DHT22;61553;48.994;8.940;2023-07-29T07:27:00;19.90;99.90
32322;DHT22;61553;48.994;8.940;2023-07-29T07:29:26;20.10;99.90
32322;DHT22;61553;48.994;8.940;2023-07-29T07:31:53;20.40;99.90
32322;DHT22;61553;48.994;8.940;2023-07-29T07:34:20;20.70;99.90
32322;DHT22;61553;48.994;8.940;2023-07-29T07:36:46;20.80;99.90
32322;DHT22;61553;48.994;8.940;2023-07-29T07:39:12;21.00;99.90
32322;DHT22;61553;48.994;8.940;2023-07-29T07:41:38;21.20;99.90
32322;DHT22;61553;48.994;8.940;2023-07-29T07:44:04;21.40;99.90
32322;DHT22;61553;48.994;8.940;2023-07-29T07:46:29;21.60;99.90
32322;DHT22;61553;48.994;8.940;2023-07-29T07:48:55;21.60;99.90
32322;DHT22;61553;48.994;8.940;2023-07-29T07:51:21;21.80;99.90
32322;DHT22;61553;48.994;8.940;2023-07-29T07:53:46;22.10;99.90
32322;DHT22;61553;48.994;8.940;2023-07-29T07:56:12;22.60;99.90
32322;DHT22;61553;48.994;8.940;2023-07-29T07:58:38;23.20;99.90
32322;DHT22;61553;48.994;8.940;2023-07-29T08:01:04;24.10;99.90
32322;DHT22;61553;48.994;8.940;2023-07-29T08:03:30;24.70;99.90
32322;DHT22;61553;48.994;8.940;2023-07-29T08:05:56;26.10;99.90
32322;DHT22;61553;48.994;8.940;2023-07-29T08:08:21;27.50;99.90
32322;DHT22;61553;48.994;8.940;2023-07-29T08:10:47;28.10;99.90
32322;DHT22;61553;48.994;8.940;2023-07-29T08:13:13;28.50;99.90
32322;DHT22;61553;48.994;8.940;2023-07-29T08:15:38;28.60;99.90
32322;DHT22;61553;48.994;8.940;2023-07-29T08:18:04;28.40;99.90
32322;DHT22;61553;48.994;8.940;2023-07-29T08:20:30;27.60;99.90
32322;DHT22;61553;48.994;8.940;2023-07-29T08:22:55;27.30;99.90
32322;DHT22;61553;48.994;8.940;2023-07-29T08:25:21;26.80;99.90
32322;DHT22;61553;48.994;8.940;2023-07-29T08:27:46;26.30;99.90
32322;DHT22;61553;48.994;8.940;2023-07-29T08:30:12;25.40;99.90
32322;DHT22;61553;48.994;8.940;2023-07-29T08:32:38;25.10;99.90
32322;DHT22;61553;48.994;8.940;2023-07-29T08:35:03;24.50;99.90
32322;DHT22;61553;48.994;8.940;2023-07-29T08:37:29;24.10;99.90
32322;DHT22;61553;48.994;8.940;2023-07-29T08:39:56;24.00;99.90
32322;DHT22;61553;48.994;8.940;2023-07-29T08:42:23;23.80;99.90
32322;DHT22;61553;48.994;8.940;2023-07-29T08:44:54;23.90;99.90
32322;DHT22;61553;48.994;8.940;2023-07-29T08:47:21;24.00;99.90
32322;DHT22;61553;48.994;8.940;2023-07-29T08:49:47;24.20;99.90
32322;DHT22;61553;48.994;8.940;2023-07-29T08:52:14;24.50;99.90
32322;DHT22;61553;48.994;8.940;2023-07-29T08:54:40;24.90;99.90
32322;DHT22;61553;48.994;8.940;2023-07-29T08:57:06;25.40;99.90
32322;DHT22;61553;48.994;8.940;2023-07-29T08:59:33;25.90;99.90
32322;DHT22;61553;48.994;8.940;2023-07-29T09:01:58;26.00;99.90
32322;DHT22;61553;48.994;8.940;2023-07-29T09:04:24;25.90;99.90
32322;DHT22;61553;48.994;8.940;2023-07-29T09:06:51;25.60;99.90
32322;DHT22;61553;48.994;8.940;2023-07-29T09:09:16;25.50;99.90
32322;DHT22;61553;48.994;8.940;2023-07-29T09:11:43;25.70;99.90
32322;DHT22;61553;48.994;8.940;2023-07-29T09:14:10;25.40;99.90
32322;DHT22;61553;48.994;8.940;2023-07-29T09:16:36;25.10;99.90
32322;DHT22;61553;48.994;8.940;2023-07-29T09:19:02;24.90;99.90
32322;DHT22;61553;48.994;8.940;2023-07-29T09:21:32;24.70;99.90
32322;DHT22;61553;48.994;8.940;2023-07-29T09:24:03;24.00;99.90
32322;DHT22;61553;48.994;8.940;2023-07-29T09:26:29;23.20;99.90
32322;DHT22;61553;48.994;8.940;2023-07-29T09:28:57;22.30;99.90
32322;DHT22;61553;48.994;8.940;2023-07-29T09:31:25;21.60;99.90
32322;DHT22;61553;48.994;8.940;2023-07-29T09:33:58;21.10;99.90
32322;DHT22;61553;48.994;8.940;2023-07-29T09:36:25;20.60;99.90
32322;DHT22;61553;48.994;8.940;2023-07-29T09:38:55;20.30;99.90
32322;DHT22;61553;48.994;8.940;2023-07-29T09:41:28;20.20;99.90
32322;DHT22;61553;48.994;8.940;2023-07-29T09:43:57;20.10;99.90
32322;DHT22;61553;48.994;8.940;2023-07-29T09:46:24;19.80;99.90
32322;DHT22;61553;48.994;8.940;2023-07-29T09:48:54;19.60;99.90
32322;DHT22;61553;48.994;8.940;2023-07-29T09:51:23;19.50;99.90
32322;DHT22;61553;48.994;8.940;2023-07-29T09:53:51;19.40;99.90
32322;DHT22;61553;48.994;8.940;2023-07-29T09:56:25;19.50;99.90
32322;DHT22;61553;48.994;8.940;2023-07-29T09:58:52;19.60;99.90
32322;DHT22;61553;48.994;8.940;2023-07-29T10:01:18;19.80;99.90
32322;DHT22;61553;48.994;8.940;2023-07-29T10:03:44;20.10;99.90
32322;DHT22;61553;48.994;8.940;2023-07-29T10:06:10;20.80;99.90
32322;DHT22;61553;48.994;8.940;2023-07-29T10:08:36;21.40;99.90
32322;DHT22;61553;48.994;8.940;2023-07-29T10:11:06;22.10;99.90
32322;DHT22;61553;48.994;8.940;2023-07-29T10:13:32;23.50;99.90
32322;DHT22;61553;48.994;8.940;2023-07-29T10:15:59;25.40;99.90
32322;DHT22;61553;48.994;8.940;2023-07-29T10:18:28;26.40;99.90
32322;DHT22;61553;48.994;8.940;2023-07-29T10:20:57;27.70;99.90
32322;DHT22;61553;48.994;8.940;2023-07-29T10:23:25;29.70;99.90
32322;DHT22;61553;48.994;8.940;2023-07-29T10:28:25;31.70;97.60
32322;DHT22;61553;48.994;8.940;2023-07-29T10:30:51;32.50;93.40
32322;DHT22;61553;48.994;8.940;2023-07-29T10:33:17;31.70;91.70
32322;DHT22;61553;48.994;8.940;2023-07-29T10:35:43;31.50;91.70
32322;DHT22;61553;48.994;8.940;2023-07-29T10:38:09;31.30;91.50
32322;DHT22;61553;48.994;8.940;2023-07-29T10:40:57;30.60;91.80
32322;DHT22;61553;48.994;8.940;2023-07-29T10:43:25;30.30;92.90
32322;DHT22;61553;48.994;8.940;2023-07-29T10:45:51;29.50;92.60
32322;DHT22;61553;48.994;8.940;2023-07-29T10:48:40;28.80;94.00
32322;DHT22;61553;48.994;8.940;2023-07-29T10:51:45;28.70;96.30
32322;DHT22;61553;48.994;8.940;2023-07-29T10:54:13;28.50;96.00
32322;DHT22;61553;48.994;8.940;2023-07-29T10:56:43;28.60;96.80
32322;DHT22;61553;48.994;8.940;2023-07-29T11:01:39;27.90;97.00
32322;DHT22;61553;48.994;8.940;2023-07-29T11:17:34;26.50;99.90
32322;DHT22;61553;48.994;8.940;2023-07-29T11:20:01;26.60;99.50
32322;DHT22;61553;48.994;8.940;2023-07-29T11:22:28;26.40;99.90
32322;DHT22;61553;48.994;8.940;2023-07-29T11:24:54;26.00;99.90
32322;DHT22;61553;48.994;8.940;2023-07-29T11:27:20;26.20;99.90
32322;DHT22;61553;48.994;8.940;2023-07-29T11:29:47;26.30;99.90
32322;DHT22;61553;48.994;8.940;2023-07-29T11:32:13;26.60;99.90
32322;DHT22;61553;48.994;8.940;2023-07-29T11:34:39;26.80;99.30
32322;DHT22;61553;48.994;8.940;2023-07-29T11:37:10;26.70;98.00
32322;DHT22;61553;48.994;8.940;2023-07-29T11:39:40;26.50;97.90
32322;DHT22;61553;48.994;8.940;2023-07-29T11:42:06;26.50;99.30
32322;DHT22;61553;48.994;8.940;2023-07-29T11:44:32;26.20;99.90
32322;DHT22;61553;48.994;8.940;2023-07-29T11:46:58;26.20;99.90
32322;DHT22;61553;48.994;8.940;2023-07-29T11:49:23;26.10;99.20
32322;DHT22;61553;48.994;8.940;2023-07-29T11:51:49;26.20;99.70
32322;DHT22;61553;48.994;8.940;2023-07-29T11:54:15;26.00;99.70
32322;DHT22;61553;48.994;8.940;2023-07-29T11:56:41;26.10;98.90
32322;DHT22;61553;48.994;8.940;2023-07-29T11:59:07;26.20;99.80
32322;DHT22;61553;48.994;8.940;2023-07-29T12:01:33;26.30;99.90
32322;DHT22;61553;48.994;8.940;2023-07-29T12:03:59;26.60;99.10
32322;DHT22;61553;48.994;8.940;2023-07-29T12:06:25;26.60;99.70
32322;DHT22;61553;48.994;8.940;2023-07-29T12:08:51;26.70;98.30
32322;DHT22;61553;48.994;8.940;2023-07-29T12:11:17;27.00;98.70
32322;DHT22;61553;48.994;8.940;2023-07-29T12:13:43;27.30;99.20
32322;DHT22;61553;48.994;8.940;2023-07-29T12:16:09;27.10;97.20
32322;DHT22;61553;48.994;8.940;2023-07-29T12:18:36;26.90;96.60
32322;DHT22;61553;48.994;8.940;2023-07-29T12:21:02;26.70;97.00
32322;DHT22;61553;48.994;8.940;2023-07-29T12:23:29;26.60;96.80
32322;DHT22;61553;48.994;8.940;2023-07-29T12:25:59;26.80;97.70
32322;DHT22;61553;48.994;8.940;2023-07-29T12:28:25;27.00;96.30
32322;DHT22;61553;48.994;8.940;2023-07-29T12:30:54;27.00;96.50
32322;DHT22;61553;48.994;8.940;2023-07-29T12:33:35;27.10;97.20
32322;DHT22;61553;48.994;8.940;2023-07-29T12:36:02;27.10;96.00
32322;DHT22;61553;48.994;8.940;2023-07-29T12:38:29;27.20;94.40
32322;DHT22;61553;48.994;8.940;2023-07-29T12:40:55;27.30;95.80
32322;DHT22;61553;48.994;8.940;2023-07-29T12:43:21;27.40;93.80
32322;DHT22;61553;48.994;8.940;2023-07-29T12:45:49;27.20;93.50
32322;DHT22;61553;48.994;8.940;2023-07-29T12:48:15;27.10;93.50
32322;DHT22;61553;48.994;8.940;2023-07-29T12:50:40;27.00;93.70
32322;DHT22;61553;48.994;8.940;2023-07-29T12:53:07;27.00;93.60
32322;DHT22;61553;48.994;8.940;2023-07-29T12:55:34;26.90;92.90
32322;DHT22;61553;48.994;8.940;2023-07-29T12:58:00;26.50;93.90
32322;DHT22;61553;48.994;8.940;2023-07-29T13:00:26;26.60;93.40
32322;DHT22;61553;48.994;8.940;2023-07-29T13:02:51;26.40;94.10
32322;DHT22;61553;48.994;8.940;2023-07-29T13:05:17;26.50;94.00
32322;DHT22;61553;48.994;8.940;2023-07-29T13:07:43;26.70;93.20
32322;DHT22;61553;48.994;8.940;2023-07-29T13:10:10;26.70;93.30
32322;DHT22;61553;48.994;8.940;2023-07-29T13:12:36;26.70;94.10
32322;DHT22;61553;48.994;8.940;2023-07-29T13:15:02;26.90;93.10
32322;DHT22;61553;48.994;8.940;2023-07-29T13:17:28;27.00;92.80
32322;DHT22;61553;48.994;8.940;2023-07-29T13:19:53;27.00;93.30
32322;DHT22;61553;48.994;8.940;2023-07-29T13:22:20;26.90;93.20
32322;DHT22;61553;48.994;8.940;2023-07-29T13:24:46;27.00;93.80
32322;DHT22;61553;48.994;8.940;2023-07-29T13:27:12;27.20;93.90
32322;DHT22;61553;48.994;8.940;2023-07-29T13:29:37;27.20;92.40
32322;DHT22;61553;48.994;8.940;2023-07-29T13:32:03;27.20;92.80
32322;DHT22;61553;48.994;8.940;2023-07-29T13:34:29;27.20;92.70
32322;DHT22;61553;48.994;8.940;2023-07-29T13:36:54;27.20;92.60
32322;DHT22;61553;48.994;8.940;2023-07-29T13:39:20;27.20;93.00
32322;DHT22;61553;48.994;8.940;2023-07-29T13:41:47;27.40;93.10
32322;DHT22;61553;48.994;8.940;2023-07-29T13:44:12;27.70;91.80
32322;DHT22;61553;48.994;8.940;2023-07-29T13:46:38;27.80;92.10
32322;DHT22;61553;48.994;8.940;2023-07-29T13:49:03;27.70;91.20
32322;DHT22;61553;48.994;8.940;2023-07-29T13:51:29;27.60;91.20
32322;DHT22;61553;48.994;8.940;2023-07-29T13:53:55;27.80;91.30
32322;DHT22;61553;48.994;8.940;2023-07-29T13:56:22;27.90;91.50
32322;DHT22;61553;48.994;8.940;2023-07-29T13:58:47;28.20;90.40
32322;DHT22;61553;48.994;8.940;2023-07-29T14:01:13;28.30;90.40
32322;DHT22;61553;48.994;8.940;2023-07-29T14:03:39;28.50;90.20
32322;DHT22;61553;48.994;8.940;2023-07-29T14:06:04;28.40;87.00
32322;DHT22;61553;48.994;8.940;2023-07-29T14:08:30;28.20;88.20
32322;DHT22;61553;48.994;8.940;2023-07-29T14:10:55;28.40;89.70
32322;DHT22;61553;48.994;8.940;2023-07-29T14:13:21;28.50;89.20
32322;DHT22;61553;48.994;8.940;2023-07-29T14:15:47;28.20;87.70
32322;DHT22;61553;48.994;8.940;2023-07-29T14:18:12;28.10;87.90
32322;DHT22;61553;48.994;8.940;2023-07-29T14:20:38;28.00;86.50
32322;DHT22;61553;48.994;8.940;2023-07-29T14:23:04;27.70;87.40
32322;DHT22;61553;48.994;8.940;2023-07-29T14:25:30;27.60;86.60
32322;DHT22;61553;48.994;8.940;2023-07-29T14:27:55;27.40;84.20
32322;DHT22;61553;48.994;8.940;2023-07-29T14:30:21;27.30;84.40
32322;DHT22;61553;48.994;8.940;2023-07-29T14:32:47;27.20;84.20
32322;DHT22;61553;48.994;8.940;2023-07-29T14:35:12;27.20;84.20
32322;DHT22;61553;48.994;8.940;2023-07-29T14:37:38;27.20;84.50
32322;DHT22;61553;48.994;8.940;2023-07-29T14:40:04;27.30;83.10
32322;DHT22;61553;48.994;8.940;2023-07-29T14:42:30;27.20;82.50
32322;DHT22;61553;48.994;8.940;2023-07-29T14:44:56;27.00;83.60
32322;DHT22;61553;48.994;8.940;2023-07-29T14:47:21;27.10;85.20
32322;DHT22;61553;48.994;8.940;2023-07-29T14:49:47;27.20;85.00
32322;DHT22;61553;48.994;8.940;2023-07-29T14:52:13;27.10;82.80
32322;DHT22;61553;48.994;8.940;2023-07-29T14:54:38;26.90;82.20
32322;DHT22;61553;48.994;8.940;2023-07-29T14:57:06;26.90;82.10
32322;DHT22;61553;48.994;8.940;2023-07-29T14:59:32;26.90;82.50
32322;DHT22;61553;48.994;8.940;2023-07-29T15:01:57;26.90;81.70
32322;DHT22;61553;48.994;8.940;2023-07-29T15:04:23;26.90;82.50
32322;DHT22;61553;48.994;8.940;2023-07-29T15:06:49;26.80;82.20
32322;DHT22;61553;48.994;8.940;2023-07-29T15:09:14;26.90;82.90
32322;DHT22;61553;48.994;8.940;2023-07-29T15:11:40;27.00;82.50
32322;DHT22;61553;48.994;8.940;2023-07-29T15:14:06;27.00;82.80
32322;DHT22;61553;48.994;8.940;2023-07-29T15:16:32;27.00;81.30
32322;DHT22;61553;48.994;8.940;2023-07-29T15:19:01;27.10;83.00
32322;DHT22;61553;48.994;8.940;2023-07-29T15:21:27;27.00;83.50
32322;DHT22;61553;48.994;8.940;2023-07-29T15:23:53;27.00;84.60
32322;DHT22;61553;48.994;8.940;2023-07-29T15:26:18;27.20;84.60
32322;DHT22;61553;48.994;8.940;2023-07-29T15:28:44;27.10;84.10
32322;DHT22;61553;48.994;8.940;2023-07-29T15:31:12;27.10;84.20
32322;DHT22;61553;48.994;8.940;2023-07-29T15:33:38;26.90;83.80
32322;DHT22;61553;48.994;8.940;2023-07-29T15:36:04;26.80;84.00
32322;DHT22;61553;48.994;8.940;2023-07-29T15:38:29;26.80;84.40
32322;DHT22;61553;48.994;8.940;2023-07-29T15:40:55;26.70;85.20
32322;DHT22;61553;48.994;8.940;2023-07-29T15:43:21;26.60;84.50
32322;DHT22;61553;48.994;8.940;2023-07-29T15:45:46;26.60;84.70